Terminal Aerodrome Forecast
Issued by NWS Cleveland, OH

Home | Current Version | Previous Version | Graphics & Text | Print | Product List | Glossary On
Versions: 1 2 3 4 5 6 7 8 9 10 11 12 13 14 15 16 17 18 19 20 21 22 23
000
FTUS41 KCLE 151700
TAFYNG
TAF
KYNG 151737Z 1518/1618 18006KT P6SM SCT040 OVC100
      TEMPO 1522/1524 5SM -RA BR OVC040
     FM160000 24004KT 6SM -RA BR SCT015 OVC040
      TEMPO 1600/1602 4SM -RA BR OVC015
     FM160200 28004KT 4SM -RA BR OVC015
     FM160600 32004KT 2SM BR OVC004
     FM161400 34004KT 4SM BR OVC015
     FM161600 34006KT P6SM SCT030=

USA.gov is the U.S. government's official web portal to all federal, state and local government web resources and services.